sensor_id;sensor_type;location;lat;lon;timestamp;P1;durP1;ratioP1;P2;durP2;ratioP2
10389;SDS011;5241;47.830;12.972;2022-09-09T00:03:27;1.50;;;1.00;;
10389;SDS011;5241;47.830;12.972;2022-09-09T00:06:03;2.23;;;1.10;;
10389;SDS011;5241;47.830;12.972;2022-09-09T00:08:49;3.77;;;1.27;;
10389;SDS011;5241;47.830;12.972;2022-09-09T00:11:36;1.87;;;1.10;;
10389;SDS011;5241;47.830;12.972;2022-09-09T00:14:33;2.10;;;1.20;;
10389;SDS011;5241;47.830;12.972;2022-09-09T00:17:03;1.83;;;0.90;;
10389;SDS011;5241;47.830;12.972;2022-09-09T00:19:38;1.63;;;1.20;;
10389;SDS011;5241;47.830;12.972;2022-09-09T00:22:18;3.63;;;1.23;;
10389;SDS011;5241;47.830;12.972;2022-09-09T00:24:49;1.43;;;1.00;;
10389;SDS011;5241;47.830;12.972;2022-09-09T00:30:12;1.67;;;0.93;;
10389;SDS011;5241;47.830;12.972;2022-09-09T00:33:33;3.60;;;1.17;;
10389;SDS011;5241;47.830;12.972;2022-09-09T00:35:37;4.97;;;1.20;;
10389;SDS011;5241;47.830;12.972;2022-09-09T00:38:13;2.27;;;1.07;;
10389;SDS011;5241;47.830;12.972;2022-09-09T00:43:36;1.00;;;0.90;;
10389;SDS011;5241;47.830;12.972;2022-09-09T00:57:31;1.23;;;0.97;;
10389;SDS011;5241;47.830;12.972;2022-09-09T01:02:52;2.80;;;1.10;;
10389;SDS011;5241;47.830;12.972;2022-09-09T01:08:15;1.03;;;0.90;;
10389;SDS011;5241;47.830;12.972;2022-09-09T01:10:53;1.47;;;1.07;;
10389;SDS011;5241;47.830;12.972;2022-09-09T01:13:27;1.43;;;0.93;;
10389;SDS011;5241;47.830;12.972;2022-09-09T01:15:55;2.03;;;0.90;;
10389;SDS011;5241;47.830;12.972;2022-09-09T01:18:26;2.10;;;1.00;;
10389;SDS011;5241;47.830;12.972;2022-09-09T01:26:15;2.93;;;1.00;;
10389;SDS011;5241;47.830;12.972;2022-09-09T01:28:47;1.40;;;0.90;;
10389;SDS011;5241;47.830;12.972;2022-09-09T01:31:34;3.23;;;1.10;;
10389;SDS011;5241;47.830;12.972;2022-09-09T01:34:12;4.40;;;1.10;;
10389;SDS011;5241;47.830;12.972;2022-09-09T01:36:50;2.07;;;1.00;;
10389;SDS011;5241;47.830;12.972;2022-09-09T01:39:22;1.20;;;0.80;;
10389;SDS011;5241;47.830;12.972;2022-09-09T01:41:48;4.80;;;1.03;;
10389;SDS011;5241;47.830;12.972;2022-09-09T01:44:14;2.63;;;1.33;;
10389;SDS011;5241;47.830;12.972;2022-09-09T01:46:40;0.93;;;0.80;;
10389;SDS011;5241;47.830;12.972;2022-09-09T01:49:06;1.30;;;0.83;;
10389;SDS011;5241;47.830;12.972;2022-09-09T01:51:33;1.37;;;1.17;;
10389;SDS011;5241;47.830;12.972;2022-09-09T01:54:01;1.67;;;0.90;;
10389;SDS011;5241;47.830;12.972;2022-09-09T01:59:19;1.20;;;0.90;;
10389;SDS011;5241;47.830;12.972;2022-09-09T02:02:26;1.40;;;0.97;;
10389;SDS011;5241;47.830;12.972;2022-09-09T02:05:12;3.07;;;1.00;;
10389;SDS011;5241;47.830;12.972;2022-09-09T02:07:41;2.03;;;1.00;;
10389;SDS011;5241;47.830;12.972;2022-09-09T02:10:12;2.17;;;1.10;;
10389;SDS011;5241;47.830;12.972;2022-09-09T02:12:49;1.03;;;0.93;;
10389;SDS011;5241;47.830;12.972;2022-09-09T02:15:35;3.30;;;1.13;;
10389;SDS011;5241;47.830;12.972;2022-09-09T02:18:11;3.77;;;0.93;;
10389;SDS011;5241;47.830;12.972;2022-09-09T02:20:40;1.60;;;1.00;;
10389;SDS011;5241;47.830;12.972;2022-09-09T02:23:08;0.93;;;0.90;;
10389;SDS011;5241;47.830;12.972;2022-09-09T02:25:35;2.10;;;0.90;;
10389;SDS011;5241;47.830;12.972;2022-09-09T02:28:03;1.20;;;1.10;;
10389;SDS011;5241;47.830;12.972;2022-09-09T02:30:32;2.73;;;1.03;;
10389;SDS011;5241;47.830;12.972;2022-09-09T02:33:00;1.43;;;0.73;;
10389;SDS011;5241;47.830;12.972;2022-09-09T02:35:31;1.10;;;0.93;;
10389;SDS011;5241;47.830;12.972;2022-09-09T02:38:02;2.13;;;1.00;;
10389;SDS011;5241;47.830;12.972;2022-09-09T02:40:32;1.17;;;1.07;;
10389;SDS011;5241;47.830;12.972;2022-09-09T02:42:57;2.23;;;1.00;;
10389;SDS011;5241;47.830;12.972;2022-09-09T02:45:25;1.20;;;1.10;;
10389;SDS011;5241;47.830;12.972;2022-09-09T02:53:18;1.23;;;1.00;;
10389;SDS011;5241;47.830;12.972;2022-09-09T02:55:58;2.60;;;1.20;;
10389;SDS011;5241;47.830;12.972;2022-09-09T02:58:30;2.50;;;1.00;;
10389;SDS011;5241;47.830;12.972;2022-09-09T03:00:56;3.77;;;1.03;;
10389;SDS011;5241;47.830;12.972;2022-09-09T03:03:22;1.43;;;1.00;;
10389;SDS011;5241;47.830;12.972;2022-09-09T03:05:49;1.40;;;0.93;;
10389;SDS011;5241;47.830;12.972;2022-09-09T03:08:14;4.20;;;1.00;;
10389;SDS011;5241;47.830;12.972;2022-09-09T03:10:40;1.77;;;1.10;;
10389;SDS011;5241;47.830;12.972;2022-09-09T03:13:06;2.63;;;1.07;;
10389;SDS011;5241;47.830;12.972;2022-09-09T03:15:33;1.43;;;0.87;;
10389;SDS011;5241;47.830;12.972;2022-09-09T03:17:59;0.80;;;0.80;;
10389;SDS011;5241;47.830;12.972;2022-09-09T03:20:25;2.30;;;1.00;;
10389;SDS011;5241;47.830;12.972;2022-09-09T03:22:52;1.80;;;0.90;;
10389;SDS011;5241;47.830;12.972;2022-09-09T03:25:18;1.10;;;1.00;;
10389;SDS011;5241;47.830;12.972;2022-09-09T03:27:44;1.27;;;1.03;;
10389;SDS011;5241;47.830;12.972;2022-09-09T03:30:09;2.63;;;1.27;;
10389;SDS011;5241;47.830;12.972;2022-09-09T03:32:36;3.83;;;1.23;;
10389;SDS011;5241;47.830;12.972;2022-09-09T03:35:02;3.33;;;1.00;;
10389;SDS011;5241;47.830;12.972;2022-09-09T03:37:28;2.03;;;1.00;;
10389;SDS011;5241;47.830;12.972;2022-09-09T03:39:53;2.80;;;1.30;;
10389;SDS011;5241;47.830;12.972;2022-09-09T03:42:19;1.67;;;1.00;;
10389;SDS011;5241;47.830;12.972;2022-09-09T03:44:48;2.03;;;0.90;;
10389;SDS011;5241;47.830;12.972;2022-09-09T03:47:21;1.43;;;1.27;;
10389;SDS011;5241;47.830;12.972;2022-09-09T03:49:47;1.33;;;1.10;;
10389;SDS011;5241;47.830;12.972;2022-09-09T03:52:13;2.33;;;1.03;;
10389;SDS011;5241;47.830;12.972;2022-09-09T03:54:39;0.87;;;0.87;;
10389;SDS011;5241;47.830;12.972;2022-09-09T03:57:06;1.70;;;0.80;;
10389;SDS011;5241;47.830;12.972;2022-09-09T03:59:31;2.43;;;1.10;;
10389;SDS011;5241;47.830;12.972;2022-09-09T04:01:57;1.40;;;1.10;;
10389;SDS011;5241;47.830;12.972;2022-09-09T04:04:24;3.10;;;0.90;;
10389;SDS011;5241;47.830;12.972;2022-09-09T04:06:51;1.27;;;0.80;;
10389;SDS011;5241;47.830;12.972;2022-09-09T04:09:16;4.70;;;1.10;;
10389;SDS011;5241;47.830;12.972;2022-09-09T04:11:42;1.60;;;1.20;;
10389;SDS011;5241;47.830;12.972;2022-09-09T04:14:08;1.13;;;1.03;;
10389;SDS011;5241;47.830;12.972;2022-09-09T04:16:34;4.63;;;1.33;;
10389;SDS011;5241;47.830;12.972;2022-09-09T04:19:02;4.03;;;1.23;;
10389;SDS011;5241;47.830;12.972;2022-09-09T04:21:29;1.50;;;1.10;;
10389;SDS011;5241;47.830;12.972;2022-09-09T04:23:55;1.53;;;1.00;;
10389;SDS011;5241;47.830;12.972;2022-09-09T04:26:21;2.40;;;1.07;;
10389;SDS011;5241;47.830;12.972;2022-09-09T04:28:47;2.23;;;1.17;;
10389;SDS011;5241;47.830;12.972;2022-09-09T04:31:15;1.53;;;1.20;;
10389;SDS011;5241;47.830;12.972;2022-09-09T04:33:43;1.30;;;1.10;;
10389;SDS011;5241;47.830;12.972;2022-09-09T04:36:09;2.37;;;0.80;;
10389;SDS011;5241;47.830;12.972;2022-09-09T04:38:34;3.53;;;1.27;;
10389;SDS011;5241;47.830;12.972;2022-09-09T04:41:00;2.17;;;0.90;;
10389;SDS011;5241;47.830;12.972;2022-09-09T04:43:26;2.83;;;0.90;;
10389;SDS011;5241;47.830;12.972;2022-09-09T04:45:52;2.17;;;1.00;;
10389;SDS011;5241;47.830;12.972;2022-09-09T04:48:18;1.50;;;0.90;;
10389;SDS011;5241;47.830;12.972;2022-09-09T04:50:53;2.30;;;1.20;;
10389;SDS011;5241;47.830;12.972;2022-09-09T04:53:39;1.93;;;1.07;;
10389;SDS011;5241;47.830;12.972;2022-09-09T04:56:08;1.23;;;1.10;;
10389;SDS011;5241;47.830;12.972;2022-09-09T04:58:36;3.53;;;1.10;;
10389;SDS011;5241;47.830;12.972;2022-09-09T05:01:12;3.87;;;1.10;;
10389;SDS011;5241;47.830;12.972;2022-09-09T05:03:39;4.43;;;1.03;;
10389;SDS011;5241;47.830;12.972;2022-09-09T05:06:06;1.40;;;0.90;;
10389;SDS011;5241;47.830;12.972;2022-09-09T05:08:36;2.00;;;1.10;;
10389;SDS011;5241;47.830;12.972;2022-09-09T05:11:03;2.80;;;1.40;;
10389;SDS011;5241;47.830;12.972;2022-09-09T05:14:01;3.43;;;1.00;;
10389;SDS011;5241;47.830;12.972;2022-09-09T05:16:26;1.57;;;1.17;;
10389;SDS011;5241;47.830;12.972;2022-09-09T05:18:52;2.43;;;0.90;;
10389;SDS011;5241;47.830;12.972;2022-09-09T05:21:18;1.00;;;0.90;;
10389;SDS011;5241;47.830;12.972;2022-09-09T05:23:45;6.00;;;1.20;;
10389;SDS011;5241;47.830;12.972;2022-09-09T05:26:12;1.73;;;1.10;;
10389;SDS011;5241;47.830;12.972;2022-09-09T05:28:40;1.70;;;1.13;;
10389;SDS011;5241;47.830;12.972;2022-09-09T05:31:07;2.03;;;1.00;;
10389;SDS011;5241;47.830;12.972;2022-09-09T05:33:37;4.50;;;1.23;;
10389;SDS011;5241;47.830;12.972;2022-09-09T05:36:06;1.63;;;1.00;;
10389;SDS011;5241;47.830;12.972;2022-09-09T05:38:33;5.70;;;1.37;;
10389;SDS011;5241;47.830;12.972;2022-09-09T05:41:00;7.30;;;1.33;;
10389;SDS011;5241;47.830;12.972;2022-09-09T05:43:27;2.13;;;1.10;;
10389;SDS011;5241;47.830;12.972;2022-09-09T05:46:07;2.03;;;1.23;;
10389;SDS011;5241;47.830;12.972;2022-09-09T05:48:35;1.10;;;1.00;;
10389;SDS011;5241;47.830;12.972;2022-09-09T05:51:03;2.40;;;1.20;;
10389;SDS011;5241;47.830;12.972;2022-09-09T05:53:30;1.07;;;0.97;;
10389;SDS011;5241;47.830;12.972;2022-09-09T05:56:01;8.23;;;1.67;;
10389;SDS011;5241;47.830;12.972;2022-09-09T05:58:28;1.73;;;1.00;;
10389;SDS011;5241;47.830;12.972;2022-09-09T06:01:00;1.80;;;1.00;;
10389;SDS011;5241;47.830;12.972;2022-09-09T06:03:26;2.53;;;1.10;;
10389;SDS011;5241;47.830;12.972;2022-09-09T06:05:59;3.50;;;1.10;;
10389;SDS011;5241;47.830;12.972;2022-09-09T06:08:30;3.43;;;1.10;;
10389;SDS011;5241;47.830;12.972;2022-09-09T06:11:00;3.60;;;1.57;;
10389;SDS011;5241;47.830;12.972;2022-09-09T06:13:28;2.07;;;1.00;;
10389;SDS011;5241;47.830;12.972;2022-09-09T06:15:54;3.13;;;1.00;;
10389;SDS011;5241;47.830;12.972;2022-09-09T06:18:20;3.93;;;1.30;;
10389;SDS011;5241;47.830;12.972;2022-09-09T06:20:55;4.50;;;1.53;;
10389;SDS011;5241;47.830;12.972;2022-09-09T06:23:29;3.07;;;1.10;;
10389;SDS011;5241;47.830;12.972;2022-09-09T06:26:03;2.10;;;1.33;;
10389;SDS011;5241;47.830;12.972;2022-09-09T06:28:34;3.27;;;0.87;;
10389;SDS011;5241;47.830;12.972;2022-09-09T06:31:01;0.90;;;0.80;;
10389;SDS011;5241;47.830;12.972;2022-09-09T06:33:33;2.83;;;1.03;;
10389;SDS011;5241;47.830;12.972;2022-09-09T06:36:00;3.63;;;1.40;;
10389;SDS011;5241;47.830;12.972;2022-09-09T06:38:26;2.20;;;1.03;;
10389;SDS011;5241;47.830;12.972;2022-09-09T06:40:53;4.17;;;1.40;;
10389;SDS011;5241;47.830;12.972;2022-09-09T06:43:20;1.90;;;1.17;;
10389;SDS011;5241;47.830;12.972;2022-09-09T06:45:56;2.87;;;1.40;;
10389;SDS011;5241;47.830;12.972;2022-09-09T06:48:23;3.90;;;1.20;;
10389;SDS011;5241;47.830;12.972;2022-09-09T06:50:50;6.07;;;1.40;;
10389;SDS011;5241;47.830;12.972;2022-09-09T06:53:24;2.13;;;1.10;;
10389;SDS011;5241;47.830;12.972;2022-09-09T06:55:51;2.90;;;1.10;;
10389;SDS011;5241;47.830;12.972;2022-09-09T06:58:16;2.33;;;1.00;;
10389;SDS011;5241;47.830;12.972;2022-09-09T07:00:42;1.63;;;1.00;;
10389;SDS011;5241;47.830;12.972;2022-09-09T07:03:07;2.60;;;0.93;;
10389;SDS011;5241;47.830;12.972;2022-09-09T07:05:35;0.90;;;0.87;;
10389;SDS011;5241;47.830;12.972;2022-09-09T07:08:02;3.30;;;1.27;;
10389;SDS011;5241;47.830;12.972;2022-09-09T07:10:28;2.23;;;1.53;;
10389;SDS011;5241;47.830;12.972;2022-09-09T07:12:53;2.33;;;1.20;;
10389;SDS011;5241;47.830;12.972;2022-09-09T07:15:19;3.47;;;1.43;;
10389;SDS011;5241;47.830;12.972;2022-09-09T07:17:47;2.03;;;1.20;;
10389;SDS011;5241;47.830;12.972;2022-09-09T07:20:13;3.57;;;1.50;;
10389;SDS011;5241;47.830;12.972;2022-09-09T07:22:40;6.27;;;1.30;;
10389;SDS011;5241;47.830;12.972;2022-09-09T07:25:06;4.00;;;1.20;;
10389;SDS011;5241;47.830;12.972;2022-09-09T07:27:32;3.77;;;1.30;;
10389;SDS011;5241;47.830;12.972;2022-09-09T07:29:58;1.53;;;1.10;;
10389;SDS011;5241;47.830;12.972;2022-09-09T07:32:24;2.83;;;1.30;;
10389;SDS011;5241;47.830;12.972;2022-09-09T07:34:50;2.03;;;1.20;;
10389;SDS011;5241;47.830;12.972;2022-09-09T07:37:16;3.30;;;1.23;;
10389;SDS011;5241;47.830;12.972;2022-09-09T07:39:42;1.70;;;1.10;;
10389;SDS011;5241;47.830;12.972;2022-09-09T07:42:08;1.93;;;1.13;;
10389;SDS011;5241;47.830;12.972;2022-09-09T07:44:36;3.17;;;1.10;;
10389;SDS011;5241;47.830;12.972;2022-09-09T07:47:04;2.83;;;1.10;;
10389;SDS011;5241;47.830;12.972;2022-09-09T07:49:30;1.57;;;0.83;;
10389;SDS011;5241;47.830;12.972;2022-09-09T07:51:57;2.57;;;1.10;;
10389;SDS011;5241;47.830;12.972;2022-09-09T07:54:23;1.50;;;1.30;;
10389;SDS011;5241;47.830;12.972;2022-09-09T07:56:49;1.63;;;1.10;;
10389;SDS011;5241;47.830;12.972;2022-09-09T07:59:16;1.33;;;1.20;;
10389;SDS011;5241;47.830;12.972;2022-09-09T08:01:43;1.60;;;1.30;;
10389;SDS011;5241;47.830;12.972;2022-09-09T08:04:19;2.40;;;1.20;;
10389;SDS011;5241;47.830;12.972;2022-09-09T08:06:55;1.90;;;1.20;;
10389;SDS011;5241;47.830;12.972;2022-09-09T08:09:23;2.27;;;1.10;;
10389;SDS011;5241;47.830;12.972;2022-09-09T08:11:53;4.27;;;1.40;;
10389;SDS011;5241;47.830;12.972;2022-09-09T08:14:21;6.13;;;1.40;;
10389;SDS011;5241;47.830;12.972;2022-09-09T08:16:48;2.23;;;1.10;;
10389;SDS011;5241;47.830;12.972;2022-09-09T08:19:15;3.47;;;1.27;;
10389;SDS011;5241;47.830;12.972;2022-09-09T08:21:41;2.60;;;1.23;;
10389;SDS011;5241;47.830;12.972;2022-09-09T08:24:08;4.30;;;1.53;;
10389;SDS011;5241;47.830;12.972;2022-09-09T08:26:40;1.57;;;1.20;;
10389;SDS011;5241;47.830;12.972;2022-09-09T08:29:08;4.40;;;1.70;;
10389;SDS011;5241;47.830;12.972;2022-09-09T08:31:42;1.40;;;1.20;;
10389;SDS011;5241;47.830;12.972;2022-09-09T08:34:13;3.27;;;1.20;;
10389;SDS011;5241;47.830;12.972;2022-09-09T08:36:40;2.07;;;1.30;;
10389;SDS011;5241;47.830;12.972;2022-09-09T08:39:07;1.73;;;1.37;;
10389;SDS011;5241;47.830;12.972;2022-09-09T08:47:25;3.20;;;1.50;;
10389;SDS011;5241;47.830;12.972;2022-09-09T08:55:50;3.07;;;1.40;;
10389;SDS011;5241;47.830;12.972;2022-09-09T09:03:25;2.33;;;1.37;;
10389;SDS011;5241;47.830;12.972;2022-09-09T09:09:02;6.27;;;1.50;;
10389;SDS011;5241;47.830;12.972;2022-09-09T09:11:40;2.70;;;1.63;;
10389;SDS011;5241;47.830;12.972;2022-09-09T09:14:11;1.70;;;1.47;;
10389;SDS011;5241;47.830;12.972;2022-09-09T09:16:50;4.33;;;1.30;;
10389;SDS011;5241;47.830;12.972;2022-09-09T09:19:28;2.63;;;1.53;;
10389;SDS011;5241;47.830;12.972;2022-09-09T09:24:56;1.23;;;1.13;;
10389;SDS011;5241;47.830;12.972;2022-09-09T09:30:56;1.83;;;1.30;;
10389;SDS011;5241;47.830;12.972;2022-09-09T09:33:49;2.07;;;1.23;;
10389;SDS011;5241;47.830;12.972;2022-09-09T09:36:17;2.17;;;1.30;;
10389;SDS011;5241;47.830;12.972;2022-09-09T09:38:57;1.60;;;1.20;;
10389;SDS011;5241;47.830;12.972;2022-09-09T09:41:28;2.40;;;1.30;;
10389;SDS011;5241;47.830;12.972;2022-09-09T09:43:58;2.70;;;1.40;;
10389;SDS011;5241;47.830;12.972;2022-09-09T09:46:25;1.57;;;1.40;;
10389;SDS011;5241;47.830;12.972;2022-09-09T09:48:58;3.10;;;1.40;;
10389;SDS011;5241;47.830;12.972;2022-09-09T09:51:30;3.53;;;1.40;;
10389;SDS011;5241;47.830;12.972;2022-09-09T09:54:03;1.60;;;1.30;;
10389;SDS011;5241;47.830;12.972;2022-09-09T09:56:38;2.07;;;1.43;;
10389;SDS011;5241;47.830;12.972;2022-09-09T09:59:05;2.40;;;1.30;;
10389;SDS011;5241;47.830;12.972;2022-09-09T10:01:44;2.80;;;1.40;;
10389;SDS011;5241;47.830;12.972;2022-09-09T10:06:44;4.50;;;1.47;;
10389;SDS011;5241;47.830;12.972;2022-09-09T10:09:23;1.93;;;1.27;;
10389;SDS011;5241;47.830;12.972;2022-09-09T10:14:20;1.73;;;1.10;;
10389;SDS011;5241;47.830;12.972;2022-09-09T10:19:36;2.43;;;1.20;;
10389;SDS011;5241;47.830;12.972;2022-09-09T10:30:35;2.77;;;1.27;;
10389;SDS011;5241;47.830;12.972;2022-09-09T10:33:33;1.80;;;1.20;;
10389;SDS011;5241;47.830;12.972;2022-09-09T10:36:24;2.13;;;1.20;;
10389;SDS011;5241;47.830;12.972;2022-09-09T10:39:04;3.00;;;1.30;;
10389;SDS011;5241;47.830;12.972;2022-09-09T10:41:56;2.23;;;1.00;;
10389;SDS011;5241;47.830;12.972;2022-09-09T10:53:14;3.63;;;2.47;;
10389;SDS011;5241;47.830;12.972;2022-09-09T10:56:06;3.97;;;1.50;;
10389;SDS011;5241;47.830;12.972;2022-09-09T10:58:42;2.07;;;1.30;;
10389;SDS011;5241;47.830;12.972;2022-09-09T11:01:28;4.67;;;1.60;;
10389;SDS011;5241;47.830;12.972;2022-09-09T11:04:08;2.47;;;1.60;;
10389;SDS011;5241;47.830;12.972;2022-09-09T11:07:18;2.17;;;1.63;;
10389;SDS011;5241;47.830;12.972;2022-09-09T11:09:53;3.10;;;1.60;;
10389;SDS011;5241;47.830;12.972;2022-09-09T11:12:25;1.90;;;1.70;;
10389;SDS011;5241;47.830;12.972;2022-09-09T11:14:57;1.80;;;1.40;;
10389;SDS011;5241;47.830;12.972;2022-09-09T11:18:04;2.87;;;1.70;;
10389;SDS011;5241;47.830;12.972;2022-09-09T11:20:23;1.63;;;1.30;;
10389;SDS011;5241;47.830;12.972;2022-09-09T11:23:01;2.33;;;1.40;;
10389;SDS011;5241;47.830;12.972;2022-09-09T11:28:16;2.47;;;1.57;;
10389;SDS011;5241;47.830;12.972;2022-09-09T11:30:59;2.63;;;1.60;;
10389;SDS011;5241;47.830;12.972;2022-09-09T11:40:27;2.57;;;1.43;;
10389;SDS011;5241;47.830;12.972;2022-09-09T11:42:39;2.20;;;1.97;;
10389;SDS011;5241;47.830;12.972;2022-09-09T11:45:10;5.63;;;2.10;;
10389;SDS011;5241;47.830;12.972;2022-09-09T11:47:52;5.67;;;1.90;;
10389;SDS011;5241;47.830;12.972;2022-09-09T11:52:48;2.37;;;1.37;;
10389;SDS011;5241;47.830;12.972;2022-09-09T11:58:01;4.47;;;1.67;;
10389;SDS011;5241;47.830;12.972;2022-09-09T12:05:57;2.30;;;1.70;;
10389;SDS011;5241;47.830;12.972;2022-09-09T12:08:28;2.20;;;1.67;;
10389;SDS011;5241;47.830;12.972;2022-09-09T12:10:55;3.73;;;1.77;;
10389;SDS011;5241;47.830;12.972;2022-09-09T12:13:25;3.37;;;1.93;;
10389;SDS011;5241;47.830;12.972;2022-09-09T12:18:22;2.63;;;1.50;;
10389;SDS011;5241;47.830;12.972;2022-09-09T12:28:45;3.70;;;1.60;;
10389;SDS011;5241;47.830;12.972;2022-09-09T12:31:21;2.67;;;2.10;;
10389;SDS011;5241;47.830;12.972;2022-09-09T12:33:51;2.70;;;1.70;;
10389;SDS011;5241;47.830;12.972;2022-09-09T12:36:21;2.73;;;1.70;;
10389;SDS011;5241;47.830;12.972;2022-09-09T12:38:56;2.43;;;1.97;;
10389;SDS011;5241;47.830;12.972;2022-09-09T12:41:35;2.97;;;2.00;;
10389;SDS011;5241;47.830;12.972;2022-09-09T12:44:08;4.37;;;2.60;;
10389;SDS011;5241;47.830;12.972;2022-09-09T12:46:41;4.40;;;2.47;;
10389;SDS011;5241;47.830;12.972;2022-09-09T12:49:29;4.77;;;2.23;;
10389;SDS011;5241;47.830;12.972;2022-09-09T12:52:22;4.43;;;1.83;;
10389;SDS011;5241;47.830;12.972;2022-09-09T12:54:54;5.23;;;2.20;;
10389;SDS011;5241;47.830;12.972;2022-09-09T12:57:22;2.30;;;1.90;;
10389;SDS011;5241;47.830;12.972;2022-09-09T12:59:50;1.73;;;1.63;;
10389;SDS011;5241;47.830;12.972;2022-09-09T13:02:18;2.87;;;1.93;;
10389;SDS011;5241;47.830;12.972;2022-09-09T13:04:48;2.10;;;1.90;;
10389;SDS011;5241;47.830;12.972;2022-09-09T13:07:15;3.60;;;1.77;;
10389;SDS011;5241;47.830;12.972;2022-09-09T13:09:42;2.43;;;1.73;;
10389;SDS011;5241;47.830;12.972;2022-09-09T13:12:19;3.53;;;1.83;;
10389;SDS011;5241;47.830;12.972;2022-09-09T13:14:48;2.07;;;1.43;;
10389;SDS011;5241;47.830;12.972;2022-09-09T13:17:18;2.93;;;1.73;;
10389;SDS011;5241;47.830;12.972;2022-09-09T13:19:49;1.87;;;1.43;;
10389;SDS011;5241;47.830;12.972;2022-09-09T13:22:21;1.90;;;1.60;;
10389;SDS011;5241;47.830;12.972;2022-09-09T13:25:02;2.00;;;1.40;;
10389;SDS011;5241;47.830;12.972;2022-09-09T13:27:50;2.17;;;1.50;;
10389;SDS011;5241;47.830;12.972;2022-09-09T13:30:31;3.13;;;1.77;;
10389;SDS011;5241;47.830;12.972;2022-09-09T13:35:54;3.17;;;1.67;;
10389;SDS011;5241;47.830;12.972;2022-09-09T13:38:21;2.13;;;1.80;;
10389;SDS011;5241;47.830;12.972;2022-09-09T13:43:28;4.07;;;2.00;;
10389;SDS011;5241;47.830;12.972;2022-09-09T13:49:01;4.53;;;2.67;;
10389;SDS011;5241;47.830;12.972;2022-09-09T13:51:40;4.93;;;2.87;;
10389;SDS011;5241;47.830;12.972;2022-09-09T13:54:09;4.00;;;2.97;;
10389;SDS011;5241;47.830;12.972;2022-09-09T13:56:36;4.10;;;2.10;;
10389;SDS011;5241;47.830;12.972;2022-09-09T13:59:05;5.40;;;2.57;;
10389;SDS011;5241;47.830;12.972;2022-09-09T14:01:35;4.77;;;2.77;;
10389;SDS011;5241;47.830;12.972;2022-09-09T14:04:02;4.60;;;2.87;;
10389;SDS011;5241;47.830;12.972;2022-09-09T14:06:28;4.20;;;2.23;;
10389;SDS011;5241;47.830;12.972;2022-09-09T14:08:54;4.67;;;1.70;;
10389;SDS011;5241;47.830;12.972;2022-09-09T14:11:20;2.10;;;1.90;;
10389;SDS011;5241;47.830;12.972;2022-09-09T14:13:47;2.57;;;1.70;;
10389;SDS011;5241;47.830;12.972;2022-09-09T14:16:14;3.70;;;1.60;;
10389;SDS011;5241;47.830;12.972;2022-09-09T14:18:40;2.87;;;1.70;;
10389;SDS011;5241;47.830;12.972;2022-09-09T14:21:06;2.87;;;1.90;;
10389;SDS011;5241;47.830;12.972;2022-09-09T14:23:33;2.90;;;1.70;;
10389;SDS011;5241;47.830;12.972;2022-09-09T14:25:59;3.27;;;1.50;;
10389;SDS011;5241;47.830;12.972;2022-09-09T14:28:24;3.43;;;1.40;;
10389;SDS011;5241;47.830;12.972;2022-09-09T14:30:50;1.90;;;1.30;;
10389;SDS011;5241;47.830;12.972;2022-09-09T14:33:16;1.50;;;1.40;;
10389;SDS011;5241;47.830;12.972;2022-09-09T14:35:42;2.07;;;1.70;;
10389;SDS011;5241;47.830;12.972;2022-09-09T14:38:09;4.97;;;1.73;;
10389;SDS011;5241;47.830;12.972;2022-09-09T14:40:35;1.23;;;1.13;;
10389;SDS011;5241;47.830;12.972;2022-09-09T14:43:02;2.80;;;1.50;;
10389;SDS011;5241;47.830;12.972;2022-09-09T14:45:28;1.87;;;1.33;;
10389;SDS011;5241;47.830;12.972;2022-09-09T14:47:53;2.40;;;1.20;;
10389;SDS011;5241;47.830;12.972;2022-09-09T14:50:20;1.73;;;1.30;;
10389;SDS011;5241;47.830;12.972;2022-09-09T14:52:46;1.70;;;1.50;;
10389;SDS011;5241;47.830;12.972;2022-09-09T14:55:12;1.70;;;1.53;;
10389;SDS011;5241;47.830;12.972;2022-09-09T14:57:39;3.03;;;1.90;;
10389;SDS011;5241;47.830;12.972;2022-09-09T15:00:05;3.63;;;1.40;;
10389;SDS011;5241;47.830;12.972;2022-09-09T15:02:32;3.33;;;1.77;;
10389;SDS011;5241;47.830;12.972;2022-09-09T15:04:58;3.80;;;1.73;;
10389;SDS011;5241;47.830;12.972;2022-09-09T15:07:24;2.60;;;2.00;;
10389;SDS011;5241;47.830;12.972;2022-09-09T15:09:51;3.43;;;1.80;;
10389;SDS011;5241;47.830;12.972;2022-09-09T15:12:17;2.70;;;1.60;;
10389;SDS011;5241;47.830;12.972;2022-09-09T15:14:46;4.67;;;2.40;;
10389;SDS011;5241;47.830;12.972;2022-09-09T15:17:13;6.13;;;3.30;;
10389;SDS011;5241;47.830;12.972;2022-09-09T15:19:38;4.00;;;1.90;;
10389;SDS011;5241;47.830;12.972;2022-09-09T15:22:04;2.83;;;1.40;;
10389;SDS011;5241;47.830;12.972;2022-09-09T15:24:30;2.60;;;1.50;;
10389;SDS011;5241;47.830;12.972;2022-09-09T15:26:57;2.10;;;1.37;;
10389;SDS011;5241;47.830;12.972;2022-09-09T15:29:23;2.10;;;1.10;;
10389;SDS011;5241;47.830;12.972;2022-09-09T15:31:49;2.23;;;1.30;;
10389;SDS011;5241;47.830;12.972;2022-09-09T15:34:14;3.67;;;1.40;;
10389;SDS011;5241;47.830;12.972;2022-09-09T15:36:41;2.70;;;1.10;;
10389;SDS011;5241;47.830;12.972;2022-09-09T15:39:09;4.20;;;1.20;;
10389;SDS011;5241;47.830;12.972;2022-09-09T15:41:37;2.30;;;1.43;;
10389;SDS011;5241;47.830;12.972;2022-09-09T15:44:04;2.67;;;1.30;;
10389;SDS011;5241;47.830;12.972;2022-09-09T15:49:07;2.60;;;1.27;;
10389;SDS011;5241;47.830;12.972;2022-09-09T15:51:38;1.87;;;1.20;;
10389;SDS011;5241;47.830;12.972;2022-09-09T15:54:05;3.97;;;1.50;;
10389;SDS011;5241;47.830;12.972;2022-09-09T15:56:31;3.77;;;1.27;;
10389;SDS011;5241;47.830;12.972;2022-09-09T15:58:57;1.83;;;1.63;;
10389;SDS011;5241;47.830;12.972;2022-09-09T16:01:24;3.10;;;1.33;;
10389;SDS011;5241;47.830;12.972;2022-09-09T16:03:51;2.37;;;1.67;;
10389;SDS011;5241;47.830;12.972;2022-09-09T16:06:18;2.87;;;1.70;;
10389;SDS011;5241;47.830;12.972;2022-09-09T16:08:46;2.30;;;1.50;;
10389;SDS011;5241;47.830;12.972;2022-09-09T16:11:16;3.30;;;1.70;;
10389;SDS011;5241;47.830;12.972;2022-09-09T16:13:44;3.30;;;1.90;;
10389;SDS011;5241;47.830;12.972;2022-09-09T16:16:12;3.73;;;2.70;;
10389;SDS011;5241;47.830;12.972;2022-09-09T16:18:43;3.40;;;1.47;;
10389;SDS011;5241;47.830;12.972;2022-09-09T16:21:18;3.63;;;2.83;;
10389;SDS011;5241;47.830;12.972;2022-09-09T16:23:46;2.77;;;2.00;;
10389;SDS011;5241;47.830;12.972;2022-09-09T16:26:14;3.97;;;1.83;;
10389;SDS011;5241;47.830;12.972;2022-09-09T16:28:41;3.37;;;2.00;;
10389;SDS011;5241;47.830;12.972;2022-09-09T16:31:08;3.33;;;2.10;;
10389;SDS011;5241;47.830;12.972;2022-09-09T16:33:35;3.30;;;2.10;;
10389;SDS011;5241;47.830;12.972;2022-09-09T16:36:08;2.87;;;1.90;;
10389;SDS011;5241;47.830;12.972;2022-09-09T16:38:35;2.63;;;2.00;;
10389;SDS011;5241;47.830;12.972;2022-09-09T16:41:02;2.23;;;1.70;;
10389;SDS011;5241;47.830;12.972;2022-09-09T16:43:30;2.63;;;2.13;;
10389;SDS011;5241;47.830;12.972;2022-09-09T16:45:56;3.03;;;1.80;;
10389;SDS011;5241;47.830;12.972;2022-09-09T16:48:22;2.10;;;1.60;;
10389;SDS011;5241;47.830;12.972;2022-09-09T16:50:48;3.23;;;1.97;;
10389;SDS011;5241;47.830;12.972;2022-09-09T16:53:13;2.03;;;1.70;;
10389;SDS011;5241;47.830;12.972;2022-09-09T16:55:40;3.93;;;1.83;;
10389;SDS011;5241;47.830;12.972;2022-09-09T16:58:08;3.17;;;1.70;;
10389;SDS011;5241;47.830;12.972;2022-09-09T17:00:35;3.30;;;1.70;;
10389;SDS011;5241;47.830;12.972;2022-09-09T17:03:01;1.73;;;1.60;;
10389;SDS011;5241;47.830;12.972;2022-09-09T17:05:27;2.03;;;1.70;;
10389;SDS011;5241;47.830;12.972;2022-09-09T17:07:54;5.20;;;2.30;;
10389;SDS011;5241;47.830;12.972;2022-09-09T17:10:23;2.77;;;2.17;;
10389;SDS011;5241;47.830;12.972;2022-09-09T17:12:50;3.60;;;2.10;;
10389;SDS011;5241;47.830;12.972;2022-09-09T17:15:15;4.63;;;2.03;;
10389;SDS011;5241;47.830;12.972;2022-09-09T17:17:42;3.67;;;2.00;;